Time;durP1;ratioP1;P1;durP2;ratioP2;P2;SDS_P1;SDS_P2;PMS_P1;PMS_P2;Temp;Humidity;BMP_temperature;BMP_pressure;BME280_temperature;BME280_humidity;BME280_pressure;Samples;Min_cycle;Max_cycle;Signal;HPM_P1;HPM_P2
2022/07/29 00:01:57;;;;;;;5.97;5.63;;;35.20;65.40;;;;;;5072145;28;20476;-66
2022/07/29 00:04:30;;;;;;;5.73;5.43;;;35.20;64.50;;;;;;5065761;28;20456;-66
2022/07/29 00:07:01;;;;;;;5.57;5.27;;;35.20;64.20;;;;;;5060064;28;20464;-66
2022/07/29 00:09:31;;;;;;;5.10;4.70;;;35.20;67.10;;;;;;5064254;28;20564;-65
2022/07/29 00:12:20;;;;;;;5.73;5.33;;;35.20;66.40;;;;;;5064385;28;20459;-65
2022/07/29 00:14:56;;;;;;;6.33;5.83;;;35.20;66.30;;;;;;5062844;28;20554;-66
2022/07/29 00:17:27;;;;;;;5.87;5.47;;;35.20;66.40;;;;;;5063049;28;20490;-65
2022/07/29 00:20:00;;;;;;;6.07;5.63;;;35.20;67.90;;;;;;5074451;28;20513;-65
2022/07/29 00:22:30;;;;;;;5.20;4.90;;;35.30;67.30;;;;;;5060030;28;20573;-65
2022/07/29 00:25:01;;;;;;;5.73;5.30;;;35.10;66.90;;;;;;5062982;28;20464;-67
2022/07/29 00:27:34;;;;;;;5.90;5.50;;;35.00;68.00;;;;;;5068718;28;20531;-65
2022/07/29 00:30:08;;;;;;;6.07;5.60;;;34.90;67.90;;;;;;5077567;28;20539;-66
2022/07/29 00:32:40;;;;;;;6.20;5.80;;;34.80;68.40;;;;;;5078263;28;20457;-66
2022/07/29 00:38:02;;;;;;;5.83;5.43;;;34.80;69.90;;;;;;5065524;28;20467;-65
2022/07/29 00:40:33;;;;;;;5.77;5.37;;;35.00;69.50;;;;;;5074080;28;20459;-65
2022/07/29 00:43:03;;;;;;;5.80;5.40;;;35.10;70.00;;;;;;5066055;28;20452;-65
2022/07/29 00:45:34;;;;;;;5.90;5.50;;;35.10;69.50;;;;;;5081597;28;20462;-63
2022/07/29 00:48:08;;;;;;;5.30;4.90;;;35.10;68.70;;;;;;5084543;28;20543;-65
2022/07/29 00:50:41;;;;;;;6.30;5.90;;;35.00;69.20;;;;;;5083729;28;20494;-63
2022/07/29 00:53:14;;;;;;;6.10;5.60;;;34.80;69.70;;;;;;5083848;28;20447;-63
2022/07/29 00:55:45;;;;;;;6.53;6.03;;;34.80;69.90;;;;;;5082934;28;20517;-62
2022/07/29 00:58:15;;;;;;;5.33;5.03;;;34.80;70.50;;;;;;5083972;28;20493;-62
2022/07/29 01:00:46;;;;;;;5.93;5.53;;;34.90;70.90;;;;;;5084128;28;20982;-63
2022/07/29 01:03:17;;;;;;;6.47;5.87;;;34.90;70.90;;;;;;5067020;28;20508;-62
2022/07/29 01:05:50;;;;;;;6.67;6.17;;;34.80;70.70;;;;;;5059397;28;20466;-62
2022/07/29 01:08:21;;;;;;;6.43;5.93;;;34.80;70.60;;;;;;5048234;28;20488;-64
2022/07/29 01:10:53;;;;;;;6.40;6.00;;;34.80;70.60;;;;;;5066440;28;20467;-63
2022/07/29 01:13:25;;;;;;;5.97;5.60;;;34.80;70.30;;;;;;5063854;28;20490;-63
2022/07/29 01:16:01;;;;;;;6.23;5.80;;;34.60;71.20;;;;;;5069059;28;20458;-63
2022/07/29 01:18:35;;;;;;;5.70;5.30;;;34.60;71.90;;;;;;5083489;28;20458;-62
2022/07/29 01:21:40;;;;;;;6.43;6.00;;;34.60;73.10;;;;;;5082679;28;20466;-63
2022/07/29 01:24:30;;;;;;;5.83;5.47;;;34.60;73.20;;;;;;5078403;28;20482;-63
2022/07/29 01:27:12;;;;;;;6.23;5.83;;;34.60;73.80;;;;;;5069042;28;20452;-63
2022/07/29 01:29:53;;;;;;;5.83;5.43;;;34.50;72.90;;;;;;5063916;28;20901;-63
2022/07/29 01:32:27;;;;;;;6.13;5.73;;;34.40;73.60;;;;;;5064917;28;20448;-62
2022/07/29 01:35:04;;;;;;;6.70;6.30;;;34.30;73.20;;;;;;5069680;28;20484;-63
2022/07/29 01:37:41;;;;;;;5.93;5.53;;;34.20;73.30;;;;;;5062646;28;20451;-63
2022/07/29 01:40:20;;;;;;;5.80;5.50;;;34.10;74.20;;;;;;5062907;28;20474;-62
2022/07/29 01:42:54;;;;;;;6.50;6.00;;;34.00;74.90;;;;;;5055516;28;20456;-65
2022/07/29 01:45:31;;;;;;;6.50;6.10;;;34.00;73.50;;;;;;5063454;28;20451;-64
2022/07/29 01:48:06;;;;;;;6.20;5.80;;;34.00;73.70;;;;;;5072454;28;20455;-65
2022/07/29 01:50:47;;;;;;;6.07;5.67;;;34.00;74.20;;;;;;5063606;28;20505;-64
2022/07/29 01:53:28;;;;;;;6.67;6.17;;;34.00;73.80;;;;;;5062957;28;20519;-64
2022/07/29 01:56:08;;;;;;;6.20;5.80;;;34.00;73.60;;;;;;5069629;28;20543;-66
2022/07/29 01:58:41;;;;;;;5.93;5.53;;;34.00;74.70;;;;;;5071463;28;20450;-65
2022/07/29 02:01:16;;;;;;;6.20;5.80;;;33.90;73.30;;;;;;5079949;28;20468;-65
2022/07/29 02:03:48;;;;;;;6.20;5.80;;;33.90;75.40;;;;;;5063214;28;20481;-65
2022/07/29 02:06:22;;;;;;;6.50;6.00;;;33.90;74.80;;;;;;5062112;28;20439;-66
2022/07/29 02:08:56;;;;;;;7.00;6.50;;;33.80;73.80;;;;;;5052450;28;20439;-66
2022/07/29 02:11:27;;;;;;;6.53;6.03;;;33.70;73.40;;;;;;5063655;28;20456;-66
2022/07/29 02:13:59;;;;;;;5.77;5.37;;;33.60;74.40;;;;;;5082560;28;20554;-66
2022/07/29 02:16:35;;;;;;;5.70;5.30;;;33.50;74.40;;;;;;5069985;28;20494;-65
2022/07/29 02:19:08;;;;;;;5.40;5.10;;;33.40;75.60;;;;;;5058762;28;20459;-65
2022/07/29 02:21:40;;;;;;;5.90;5.50;;;33.30;76.30;;;;;;5060467;28;20443;-65
2022/07/29 02:24:14;;;;;;;6.30;5.90;;;33.20;76.40;;;;;;5068208;28;20450;-65
2022/07/29 02:26:46;;;;;;;6.00;5.60;;;33.10;77.80;;;;;;5066524;28;20450;-64
2022/07/29 02:29:18;;;;;;;6.13;5.57;;;33.00;77.50;;;;;;5064272;28;20459;-64
2022/07/29 02:31:52;;;;;;;6.30;5.90;;;32.90;77.80;;;;;;5069377;28;20544;-64
2022/07/29 02:34:24;;;;;;;6.33;5.87;;;32.80;77.60;;;;;;5063529;28;20456;-64
2022/07/29 02:36:57;;;;;;;7.03;6.53;;;32.70;78.70;;;;;;5079206;28;20445;-65
2022/07/29 02:39:30;;;;;;;6.00;5.60;;;32.70;79.80;;;;;;5082716;28;20453;-65
2022/07/29 02:42:05;;;;;;;6.27;5.77;;;32.60;80.40;;;;;;5045965;28;20467;-65
2022/07/29 02:44:37;;;;;;;6.60;6.10;;;32.60;79.60;;;;;;5063994;28;20461;-65
2022/07/29 02:47:18;;;;;;;6.67;6.07;;;32.60;79.70;;;;;;5060900;28;20814;-65
2022/07/29 02:49:59;;;;;;;6.60;6.20;;;32.60;80.40;;;;;;5057319;28;20491;-65
2022/07/29 02:52:36;;;;;;;6.03;5.63;;;32.50;79.60;;;;;;5060905;28;20460;-64
2022/07/29 02:55:20;;;;;;;6.70;6.13;;;32.50;80.60;;;;;;5060479;28;20968;-65
2022/07/29 02:57:58;;;;;;;6.40;5.97;;;32.50;80.90;;;;;;5065500;28;20486;-64
2022/07/29 03:00:31;;;;;;;6.17;5.67;;;32.30;82.50;;;;;;5063838;28;20531;-64
2022/07/29 03:03:09;;;;;;;6.00;5.60;;;32.10;82.80;;;;;;5062583;28;20455;-64
2022/07/29 03:05:41;;;;;;;5.87;5.47;;;31.90;82.10;;;;;;5060814;28;20531;-65
2022/07/29 03:08:13;;;;;;;6.60;6.10;;;31.80;83.20;;;;;;5062132;28;20855;-66
2022/07/29 03:10:46;;;;;;;5.93;5.53;;;31.70;83.20;;;;;;5061812;28;20504;-65
2022/07/29 03:13:18;;;;;;;6.07;5.67;;;31.60;83.70;;;;;;5071757;28;20449;-66
2022/07/29 03:15:50;;;;;;;6.83;6.23;;;31.50;84.40;;;;;;5071457;28;20470;-65
2022/07/29 03:18:23;;;;;;;5.43;5.07;;;31.40;85.70;;;;;;5062093;28;20780;-65
2022/07/29 03:20:54;;;;;;;5.60;5.20;;;31.30;86.00;;;;;;5068934;28;20454;-65
2022/07/29 03:23:27;;;;;;;5.83;5.43;;;31.20;86.60;;;;;;5064382;28;20451;-65
2022/07/29 03:26:05;;;;;;;5.97;5.47;;;31.10;88.00;;;;;;5058203;28;20451;-65
2022/07/29 03:28:36;;;;;;;5.90;5.50;;;31.00;88.00;;;;;;5061492;28;20443;-66
2022/07/29 03:31:08;;;;;;;6.63;6.10;;;30.90;87.80;;;;;;5061063;28;20481;-65
2022/07/29 03:33:40;;;;;;;5.23;4.83;;;30.80;88.80;;;;;;5064126;28;20482;-66
2022/07/29 03:36:11;;;;;;;6.60;6.10;;;30.70;90.20;;;;;;5062985;28;20474;-65
2022/07/29 03:38:44;;;;;;;6.00;5.60;;;30.70;89.20;;;;;;5061742;28;20462;-65
2022/07/29 03:41:16;;;;;;;6.00;5.50;;;30.80;88.60;;;;;;5061635;28;20457;-65
2022/07/29 03:43:53;;;;;;;6.03;5.63;;;30.80;88.80;;;;;;5060456;28;20455;-65
2022/07/29 03:46:25;;;;;;;5.40;5.00;;;30.80;89.10;;;;;;5075575;28;20461;-65
2022/07/29 03:49:01;;;;;;;5.40;5.00;;;30.80;90.60;;;;;;5064466;28;20524;-66
2022/07/29 03:51:33;;;;;;;7.90;5.90;;;30.60;90.40;;;;;;5063977;28;20556;-66
2022/07/29 03:54:05;;;;;;;5.73;5.10;;;30.50;90.60;;;;;;5066038;28;20903;-66
2022/07/29 03:56:41;;;;;;;5.50;5.10;;;30.50;90.30;;;;;;5062726;28;20489;-65
2022/07/29 03:59:14;;;;;;;5.83;5.43;;;30.50;90.50;;;;;;5062021;28;20478;-66
2022/07/29 04:01:47;;;;;;;5.87;5.37;;;30.40;90.90;;;;;;5062043;28;20510;-66
2022/07/29 04:04:20;;;;;;;5.13;4.73;;;30.20;91.30;;;;;;5063486;28;20458;-66
2022/07/29 04:06:51;;;;;;;5.80;5.30;;;30.00;91.90;;;;;;5070527;28;20554;-66
2022/07/29 04:09:21;;;;;;;5.50;5.10;;;29.90;92.40;;;;;;5064832;28;20452;-65
2022/07/29 04:11:52;;;;;;;5.33;4.93;;;29.70;92.40;;;;;;5063565;28;20898;-66
2022/07/29 04:14:32;;;;;;;5.53;5.07;;;29.60;93.10;;;;;;5063407;28;20475;-66
2022/07/29 04:17:05;;;;;;;5.33;4.90;;;29.50;92.80;;;;;;5074381;28;20481;-66
2022/07/29 04:19:37;;;;;;;4.50;4.20;;;29.40;93.50;;;;;;5056032;28;20464;-66
2022/07/29 04:22:08;;;;;;;4.70;4.40;;;29.40;93.00;;;;;;5063894;28;20493;-66
2022/07/29 04:24:38;;;;;;;4.70;4.40;;;29.30;93.20;;;;;;5063801;28;20815;-66
2022/07/29 04:27:13;;;;;;;4.53;4.23;;;29.30;92.90;;;;;;5059908;28;20500;-65
2022/07/29 04:29:43;;;;;;;4.57;4.27;;;29.10;93.30;;;;;;5064064;28;20470;-65
2022/07/29 04:32:26;;;;;;;4.80;4.50;;;29.10;93.40;;;;;;5062967;28;20486;-66
2022/07/29 04:34:58;;;;;;;4.70;4.30;;;29.10;93.50;;;;;;5065963;28;20459;-66
2022/07/29 04:37:29;;;;;;;4.70;4.40;;;29.00;93.60;;;;;;5074142;28;20462;-66
2022/07/29 04:40:00;;;;;;;4.53;4.20;;;29.10;94.50;;;;;;5064476;28;20460;-67
2022/07/29 04:42:31;;;;;;;4.60;4.20;;;29.00;94.00;;;;;;5063315;28;20937;-66
2022/07/29 04:45:01;;;;;;;5.07;4.77;;;28.90;93.90;;;;;;5070819;28;20510;-66
2022/07/29 04:47:36;;;;;;;5.17;4.77;;;29.00;95.20;;;;;;5062667;28;20457;-66
2022/07/29 04:50:10;;;;;;;4.37;4.07;;;28.80;96.00;;;;;;5064617;28;20448;-64
2022/07/29 04:52:40;;;;;;;4.73;4.43;;;28.70;95.50;;;;;;5077012;28;21084;-65
2022/07/29 04:55:12;;;;;;;5.10;4.70;;;28.70;95.70;;;;;;5079302;28;20482;-65
2022/07/29 04:57:43;;;;;;;5.27;4.87;;;28.80;96.20;;;;;;5062824;28;20475;-65
2022/07/29 05:00:15;;;;;;;4.40;4.10;;;28.70;96.90;;;;;;5060456;28;20476;-65
2022/07/29 05:02:46;;;;;;;4.27;3.97;;;28.50;97.60;;;;;;5062954;28;20794;-67
2022/07/29 05:05:18;;;;;;;5.20;4.80;;;28.40;99.00;;;;;;5079280;28;20809;-64
2022/07/29 05:07:49;;;;;;;4.70;4.30;;;28.30;99.30;;;;;;5063064;28;20575;-64
2022/07/29 05:10:20;;;;;;;4.90;4.50;;;28.10;99.90;;;;;;5060590;28;20476;-65
2022/07/29 05:12:50;;;;;;;4.77;4.43;;;28.00;99.90;;;;;;5074158;28;20502;-65
2022/07/29 05:15:22;;;;;;;4.47;4.10;;;27.90;99.90;;;;;;5074087;28;20469;-65
2022/07/29 05:17:53;;;;;;;4.20;3.90;;;27.80;99.90;;;;;;5064625;28;20478;-65
2022/07/29 05:20:28;;;;;;;5.27;4.77;;;27.70;99.90;;;;;;5065011;28;20453;-65
2022/07/29 05:22:59;;;;;;;4.43;4.13;;;27.70;99.90;;;;;;5077393;28;20455;-65
2022/07/29 05:25:31;;;;;;;4.60;4.30;;;27.70;99.90;;;;;;5079856;28;20468;-65
2022/07/29 05:28:13;;;;;;;4.73;4.33;;;27.60;99.90;;;;;;5080454;28;20551;-65
2022/07/29 05:30:45;;;;;;;4.30;4.00;;;27.50;99.90;;;;;;5055110;28;20930;-66
2022/07/29 05:33:15;;;;;;;4.10;3.70;;;27.40;99.90;;;;;;5062849;28;20522;-65
2022/07/29 05:36:07;;;;;;;3.90;3.60;;;27.40;99.90;;;;;;5063180;28;20496;-65
2022/07/29 05:38:38;;;;;;;3.50;3.30;;;27.40;99.90;;;;;;5068241;28;20580;-65
2022/07/29 05:41:09;;;;;;;3.67;3.47;;;27.40;99.90;;;;;;5069721;28;20456;-65
2022/07/29 05:43:40;;;;;;;4.30;3.90;;;27.50;99.90;;;;;;5063475;28;21222;-64
2022/07/29 05:46:11;;;;;;;4.20;3.90;;;27.50;99.90;;;;;;5060682;28;20465;-64
2022/07/29 05:48:42;;;;;;;3.67;3.37;;;27.50;99.90;;;;;;5059258;28;20563;-66
2022/07/29 05:51:14;;;;;;;4.03;3.73;;;27.30;99.90;;;;;;5060820;28;20597;-65
2022/07/29 05:53:45;;;;;;;4.20;3.80;;;27.20;99.90;;;;;;5072339;28;20464;-65
2022/07/29 05:56:16;;;;;;;4.03;3.73;;;27.10;99.90;;;;;;5061204;28;20489;-66
2022/07/29 05:58:47;;;;;;;3.83;3.57;;;27.00;99.90;;;;;;5063821;28;20464;-65
2022/07/29 06:01:17;;;;;;;3.83;3.53;;;26.90;99.90;;;;;;5065658;28;20455;-66
2022/07/29 06:03:48;;;;;;;3.20;3.00;;;26.80;99.90;;;;;;5060512;28;20459;-64
2022/07/29 06:06:21;;;;;;;4.50;4.10;;;26.70;99.90;;;;;;5061286;28;20473;-65
2022/07/29 06:08:52;;;;;;;3.93;3.63;;;26.70;99.90;;;;;;5064177;28;20451;-65
2022/07/29 06:11:22;;;;;;;3.47;3.27;;;26.60;99.90;;;;;;5060195;28;20489;-65
2022/07/29 06:13:53;;;;;;;3.90;3.60;;;26.40;99.90;;;;;;5066555;28;20469;-64
2022/07/29 06:16:24;;;;;;;3.80;3.50;;;26.40;99.90;;;;;;5059970;28;20517;-65
2022/07/29 06:18:59;;;;;;;4.40;4.00;;;26.30;99.90;;;;;;5065468;28;20842;-65
2022/07/29 06:21:31;;;;;;;3.73;3.50;;;26.30;99.90;;;;;;5060749;28;20443;-65
2022/07/29 06:24:02;;;;;;;3.80;3.50;;;26.20;99.90;;;;;;5061682;28;20459;-64
2022/07/29 06:26:33;;;;;;;3.80;3.40;;;26.10;99.90;;;;;;5066003;28;20483;-64
2022/07/29 06:29:08;;;;;;;3.67;3.27;;;26.10;99.90;;;;;;5070916;28;20462;-65
2022/07/29 06:31:40;;;;;;;3.77;3.23;;;26.00;99.90;;;;;;5058882;28;20514;-64
2022/07/29 06:34:10;;;;;;;3.77;3.47;;;25.90;99.90;;;;;;5065091;28;20455;-65
2022/07/29 06:36:44;;;;;;;3.50;3.20;;;25.90;99.90;;;;;;5073644;28;20569;-64
2022/07/29 06:39:15;;;;;;;3.47;3.17;;;25.90;99.90;;;;;;5065664;28;20588;-65
2022/07/29 06:41:50;;;;;;;4.07;3.77;;;25.90;99.90;;;;;;5075646;28;20465;-64
2022/07/29 06:44:21;;;;;;;4.17;3.87;;;25.80;99.90;;;;;;5082032;28;20457;-64
2022/07/29 06:46:52;;;;;;;3.70;3.40;;;25.80;99.90;;;;;;5077382;28;20463;-64
2022/07/29 06:49:24;;;;;;;3.57;3.30;;;25.70;99.90;;;;;;5079055;28;20442;-65
2022/07/29 06:51:56;;;;;;;4.17;3.50;;;25.60;99.90;;;;;;5064015;28;20505;-64
2022/07/29 06:54:27;;;;;;;3.60;3.30;;;25.60;99.90;;;;;;5062020;28;20453;-64
2022/07/29 06:56:58;;;;;;;4.10;3.47;;;25.50;99.90;;;;;;5061217;28;20497;-65
2022/07/29 06:59:29;;;;;;;3.77;3.47;;;25.50;99.90;;;;;;5063436;28;20463;-65
2022/07/29 07:02:04;;;;;;;3.90;3.47;;;25.50;99.90;;;;;;5056014;28;20465;-65
2022/07/29 07:04:35;;;;;;;3.80;3.50;;;25.40;99.90;;;;;;5062340;28;20450;-63
2022/07/29 07:07:08;;;;;;;2.97;2.77;;;25.30;99.90;;;;;;5072979;28;20456;-64
2022/07/29 07:09:38;;;;;;;3.27;3.07;;;25.20;99.90;;;;;;5080558;28;20465;-64
2022/07/29 07:12:10;;;;;;;2.97;2.77;;;25.30;99.90;;;;;;5081305;28;20491;-64
2022/07/29 07:14:42;;;;;;;3.57;3.33;;;25.30;99.90;;;;;;5081798;28;20460;-64
2022/07/29 07:17:12;;;;;;;3.70;3.40;;;25.20;99.90;;;;;;5062856;28;20477;-64
2022/07/29 07:19:44;;;;;;;2.93;2.73;;;25.10;99.90;;;;;;5068251;28;20460;-64
2022/07/29 07:22:17;;;;;;;3.93;3.63;;;25.00;99.90;;;;;;5059252;28;20517;-64
2022/07/29 07:24:48;;;;;;;2.87;2.67;;;25.00;99.90;;;;;;5075548;28;20473;-64
2022/07/29 07:27:18;;;;;;;4.50;3.50;;;25.00;99.90;;;;;;5070725;28;20495;-64
2022/07/29 07:29:49;;;;;;;3.60;3.33;;;24.90;99.90;;;;;;5069880;28;20468;-64
2022/07/29 07:32:20;;;;;;;3.37;3.17;;;24.90;99.90;;;;;;5062594;28;20477;-65
2022/07/29 07:34:51;;;;;;;3.50;3.20;;;24.80;99.90;;;;;;5067130;28;20463;-64
2022/07/29 07:37:24;;;;;;;4.63;3.47;;;24.80;99.90;;;;;;5078926;28;20463;-64
2022/07/29 07:39:55;;;;;;;2.70;2.50;;;24.70;99.90;;;;;;5049257;28;20454;-64
2022/07/29 07:42:26;;;;;;;3.60;3.30;;;24.70;99.90;;;;;;5065097;28;20468;-64
2022/07/29 07:44:57;;;;;;;3.60;3.30;;;24.60;99.90;;;;;;5064635;28;20471;-64
2022/07/29 07:47:42;;;;;;;3.70;3.40;;;24.60;99.90;;;;;;5065134;28;20459;-64
2022/07/29 07:50:14;;;;;;;4.07;3.70;;;24.50;99.90;;;;;;5066805;28;20448;-64
2022/07/29 07:52:54;;;;;;;3.70;3.40;;;24.50;99.90;;;;;;5063735;28;20483;-65
2022/07/29 07:55:25;;;;;;;3.60;3.30;;;24.50;99.90;;;;;;5064140;28;20482;-65
2022/07/29 07:57:56;;;;;;;3.60;3.30;;;24.40;99.90;;;;;;5066109;28;20577;-64
2022/07/29 08:00:27;;;;;;;4.33;4.00;;;24.40;99.90;;;;;;5064913;28;20456;-64
2022/07/29 08:02:58;;;;;;;4.07;3.77;;;24.40;99.90;;;;;;5064963;28;20456;-64
2022/07/29 08:05:29;;;;;;;4.33;3.93;;;24.30;99.90;;;;;;5081009;28;20432;-64
2022/07/29 08:08:01;;;;;;;3.33;3.13;;;24.30;99.90;;;;;;5067330;28;20447;-64
2022/07/29 08:13:20;;;;;;;4.00;3.60;;;24.20;99.90;;;;;;5064432;28;20582;-64
2022/07/29 08:15:57;;;;;;;3.63;3.40;;;24.20;99.90;;;;;;5064823;28;20494;-64
2022/07/29 08:18:28;;;;;;;4.63;4.10;;;24.10;99.90;;;;;;5065682;28;20464;-64
2022/07/29 08:20:59;;;;;;;3.57;3.30;;;24.00;99.90;;;;;;5071854;28;21038;-64
2022/07/29 08:23:38;;;;;;;4.00;3.70;;;24.00;99.90;;;;;;5053540;28;20459;-64
2022/07/29 08:26:16;;;;;;;4.93;4.07;;;24.00;99.90;;;;;;5075438;28;20532;-64
2022/07/29 08:28:50;;;;;;;4.43;4.03;;;24.00;99.90;;;;;;5064904;28;20491;-64
2022/07/29 08:31:20;;;;;;;3.53;3.23;;;23.90;99.90;;;;;;5065903;28;20576;-64
2022/07/29 08:33:51;;;;;;;4.07;3.77;;;23.90;99.90;;;;;;5060598;28;20575;-64
2022/07/29 08:36:22;;;;;;;4.33;3.27;;;23.90;99.90;;;;;;5062975;28;20463;-64
2022/07/29 08:38:54;;;;;;;3.80;3.50;;;23.90;99.90;;;;;;5063484;28;20487;-64
2022/07/29 08:41:25;;;;;;;4.70;4.20;;;23.80;99.90;;;;;;5063498;28;20460;-64
2022/07/29 08:43:57;;;;;;;3.90;3.60;;;23.80;99.90;;;;;;5062105;28;20483;-64
2022/07/29 08:46:27;;;;;;;3.97;3.67;;;23.80;99.90;;;;;;5072711;28;20470;-64
2022/07/29 08:48:58;;;;;;;3.93;3.57;;;23.80;99.90;;;;;;5074431;28;20459;-64
2022/07/29 08:51:29;;;;;;;4.07;3.67;;;23.80;99.90;;;;;;5051080;28;20927;-64
2022/07/29 08:54:02;;;;;;;4.13;3.83;;;23.80;99.90;;;;;;5063744;28;21154;-64
2022/07/29 08:56:33;;;;;;;3.17;2.97;;;23.70;99.90;;;;;;5064669;28;20500;-64
2022/07/29 08:59:06;;;;;;;4.33;3.93;;;23.50;99.90;;;;;;5060204;28;20935;-64
2022/07/29 09:01:42;;;;;;;3.43;3.23;;;23.50;99.90;;;;;;5063115;28;20814;-64
2022/07/29 09:04:20;;;;;;;3.80;3.50;;;23.50;99.90;;;;;;5062730;28;20464;-64
2022/07/29 09:06:55;;;;;;;3.53;3.23;;;23.40;99.90;;;;;;5063974;28;20443;-64
2022/07/29 09:09:27;;;;;;;3.77;3.40;;;23.40;99.90;;;;;;5062412;28;20466;-64
2022/07/29 09:12:00;;;;;;;3.73;3.43;;;23.40;99.90;;;;;;5063203;28;20871;-64
2022/07/29 09:14:31;;;;;;;4.57;4.17;;;23.40;99.90;;;;;;5063126;28;20496;-64
2022/07/29 09:17:02;;;;;;;3.60;3.20;;;23.40;99.90;;;;;;5050458;28;20516;-64
2022/07/29 09:19:35;;;;;;;4.60;4.20;;;23.30;99.90;;;;;;5072150;28;20459;-64
2022/07/29 09:22:07;;;;;;;3.80;3.50;;;23.30;99.90;;;;;;5066321;28;20464;-65
2022/07/29 09:24:45;;;;;;;3.87;3.57;;;23.30;99.90;;;;;;5074515;28;20463;-64
2022/07/29 09:27:26;;;;;;;3.90;3.60;;;23.20;99.90;;;;;;5063482;28;20955;-64
2022/07/29 09:30:01;;;;;;;3.60;3.40;;;23.20;99.90;;;;;;5061745;28;20487;-64
2022/07/29 09:32:32;;;;;;;4.47;4.07;;;23.10;99.90;;;;;;5060651;28;20468;-65
2022/07/29 09:35:19;;;;;;;3.87;3.47;;;23.10;99.90;;;;;;5071304;28;20498;-64
2022/07/29 09:37:51;;;;;;;5.03;4.63;;;23.00;99.90;;;;;;5061831;28;20464;-64
2022/07/29 09:40:25;;;;;;;3.80;3.50;;;23.00;99.90;;;;;;5059612;28;20838;-64
2022/07/29 09:42:57;;;;;;;4.10;3.80;;;23.00;99.90;;;;;;5066018;28;20459;-64
2022/07/29 09:45:32;;;;;;;4.10;3.80;;;22.90;99.90;;;;;;5062376;28;20460;-64
2022/07/29 09:48:16;;;;;;;3.87;3.57;;;22.90;99.90;;;;;;5061923;28;20460;-64
2022/07/29 09:50:49;;;;;;;4.07;3.67;;;22.90;99.90;;;;;;5069394;28;20457;-64
2022/07/29 09:53:33;;;;;;;3.93;3.60;;;22.80;99.90;;;;;;5062418;28;20475;-64
2022/07/29 09:56:06;;;;;;;3.87;3.57;;;22.90;99.90;;;;;;5059861;28;20554;-65
2022/07/29 09:58:38;;;;;;;4.73;4.33;;;22.90;99.90;;;;;;5063089;28;20499;-64
2022/07/29 10:01:09;;;;;;;4.43;3.80;;;22.90;99.90;;;;;;5060928;28;20453;-64
2022/07/29 10:03:53;;;;;;;4.80;4.40;;;22.80;99.90;;;;;;5062803;28;21261;-64
2022/07/29 10:06:24;;;;;;;4.23;3.93;;;22.80;99.90;;;;;;5061139;28;20479;-64
2022/07/29 10:08:55;;;;;;;4.40;3.47;;;22.80;99.90;;;;;;5062944;28;20527;-64
2022/07/29 10:11:28;;;;;;;4.20;3.80;;;22.70;99.90;;;;;;5061560;28;20452;-64
2022/07/29 10:14:18;;;;;;;3.47;3.23;;;22.70;99.90;;;;;;5061578;28;20492;-64
2022/07/29 10:16:49;;;;;;;4.23;3.83;;;22.70;99.90;;;;;;5059273;28;20456;-64
2022/07/29 10:19:20;;;;;;;4.27;3.97;;;22.60;99.90;;;;;;5061854;28;21144;-64
2022/07/29 10:21:51;;;;;;;3.77;3.47;;;22.70;99.90;;;;;;5065445;28;20472;-64
2022/07/29 10:24:27;;;;;;;6.43;4.60;;;22.60;99.90;;;;;;5061113;28;20504;-64
2022/07/29 10:27:02;;;;;;;4.30;4.00;;;22.50;99.90;;;;;;5061126;28;20460;-64
2022/07/29 10:29:33;;;;;;;4.77;4.17;;;22.50;99.90;;;;;;5061364;28;20482;-65
2022/07/29 10:32:23;;;;;;;4.33;4.00;;;22.50;99.90;;;;;;5066979;28;20460;-65
2022/07/29 10:35:08;;;;;;;4.37;3.97;;;22.40;99.90;;;;;;5062654;28;20487;-64
2022/07/29 10:37:54;;;;;;;4.20;3.80;;;22.40;99.90;;;;;;5060741;28;20456;-64
2022/07/29 10:43:32;;;;;;;3.43;3.13;;;22.30;99.90;;;;;;5061877;28;20476;-64
2022/07/29 10:46:03;;;;;;;4.77;4.37;;;22.30;99.90;;;;;;5061549;28;20460;-65
2022/07/29 10:48:38;;;;;;;4.40;4.10;;;22.20;99.90;;;;;;5062745;28;20468;-65
2022/07/29 10:51:10;;;;;;;4.27;3.73;;;22.20;99.90;;;;;;5058939;28;20487;-64
2022/07/29 10:53:52;;;;;;;4.30;3.90;;;22.20;99.90;;;;;;5060022;28;20514;-65
2022/07/29 10:56:28;;;;;;;3.70;3.40;;;22.20;99.90;;;;;;5070009;28;20508;-65
2022/07/29 10:59:31;;;;;;;4.00;3.70;;;22.20;99.90;;;;;;5063237;28;20546;-64
2022/07/29 11:02:48;;;;;;;4.13;3.83;;;22.20;99.90;;;;;;5065566;28;20510;-65
2022/07/29 11:05:20;;;;;;;4.30;3.90;;;22.10;99.90;;;;;;5065356;28;20534;-64
2022/07/29 11:08:22;;;;;;;5.10;4.60;;;22.10;99.90;;;;;;5072598;28;20456;-64
2022/07/29 11:11:35;;;;;;;5.00;4.10;;;22.10;99.90;;;;;;5063554;28;20467;-64
2022/07/29 11:14:06;;;;;;;5.20;4.20;;;22.00;99.90;;;;;;5065589;28;20498;-65
2022/07/29 11:17:07;;;;;;;4.40;4.00;;;22.00;99.90;;;;;;5064165;28;20582;-64
2022/07/29 11:19:42;;;;;;;4.33;4.03;;;21.90;99.90;;;;;;5064807;28;20527;-63
2022/07/29 11:22:35;;;;;;;4.50;4.10;;;21.90;99.90;;;;;;5056281;28;20460;-63
2022/07/29 11:25:18;;;;;;;5.33;3.60;;;21.80;99.90;;;;;;5066910;28;20456;-64
2022/07/29 11:28:15;;;;;;;4.00;3.70;;;21.80;99.90;;;;;;5072318;28;20492;-63
2022/07/29 11:30:53;;;;;;;4.33;3.93;;;21.90;99.90;;;;;;5065600;28;20468;-63
2022/07/29 11:33:33;;;;;;;4.37;3.97;;;21.80;99.90;;;;;;5076739;28;20969;-64
2022/07/29 11:36:24;;;;;;;4.40;4.00;;;21.80;99.90;;;;;;5065190;28;20467;-64
2022/07/29 11:39:28;;;;;;;4.03;3.73;;;21.70;99.90;;;;;;5065315;28;20441;-63
2022/07/29 11:42:39;;;;;;;4.10;3.70;;;21.70;99.90;;;;;;5063766;28;20460;-64
2022/07/29 11:45:15;;;;;;;4.90;3.80;;;21.70;99.90;;;;;;5059697;28;20455;-64
2022/07/29 11:48:06;;;;;;;3.80;3.50;;;21.70;99.90;;;;;;5069405;28;20490;-63
2022/07/29 11:50:59;;;;;;;4.37;3.83;;;21.70;99.90;;;;;;5061807;28;20467;-63
2022/07/29 11:53:30;;;;;;;4.67;4.27;;;21.60;99.90;;;;;;5063755;28;20467;-63
2022/07/29 11:56:02;;;;;;;4.10;3.70;;;21.60;99.90;;;;;;5065781;28;20558;-63
2022/07/29 11:58:33;;;;;;;4.20;3.80;;;21.60;99.90;;;;;;5064924;28;20463;-63
2022/07/29 12:01:06;;;;;;;4.80;4.30;;;21.60;99.90;;;;;;5077203;28;20526;-63
2022/07/29 12:03:37;;;;;;;4.50;4.10;;;21.50;99.90;;;;;;5070790;28;20456;-63
2022/07/29 12:06:16;;;;;;;4.07;3.70;;;21.50;99.90;;;;;;5063391;28;20452;-63
2022/07/29 12:08:49;;;;;;;4.63;4.23;;;21.40;99.90;;;;;;5062335;28;20642;-63
2022/07/29 12:11:21;;;;;;;4.20;3.80;;;21.40;99.90;;;;;;5062928;28;20460;-63
2022/07/29 12:13:53;;;;;;;4.00;3.70;;;21.40;99.90;;;;;;5063921;28;20434;-63
2022/07/29 12:16:24;;;;;;;4.03;3.73;;;21.30;99.90;;;;;;5083080;28;20486;-63
2022/07/29 12:19:02;;;;;;;4.40;3.80;;;21.40;99.90;;;;;;5080129;28;20486;-63
2022/07/29 12:21:47;;;;;;;5.90;3.47;;;21.30;99.90;;;;;;5063494;28;20519;-63
2022/07/29 12:24:27;;;;;;;4.30;3.90;;;21.30;99.90;;;;;;5063502;28;20602;-63
2022/07/29 12:26:59;;;;;;;4.20;3.63;;;21.20;99.90;;;;;;5063271;28;20471;-63
2022/07/29 12:29:31;;;;;;;4.20;3.50;;;21.20;99.90;;;;;;5058258;28;20889;-63
2022/07/29 12:32:05;;;;;;;3.43;3.13;;;21.20;99.90;;;;;;5063881;28;20490;-63
2022/07/29 12:34:48;;;;;;;4.17;3.77;;;21.10;99.90;;;;;;5060475;28;20498;-63
2022/07/29 12:37:21;;;;;;;4.17;3.77;;;21.00;99.90;;;;;;5061771;28;20434;-63
2022/07/29 12:40:11;;;;;;;5.63;4.70;;;21.00;99.90;;;;;;5061776;28;20452;-63
2022/07/29 12:42:43;;;;;;;6.43;4.70;;;21.00;99.90;;;;;;5061663;28;20461;-63
2022/07/29 12:45:16;;;;;;;5.60;5.00;;;21.00;99.90;;;;;;5067904;28;20472;-63
2022/07/29 12:47:56;;;;;;;4.57;4.00;;;21.00;99.90;;;;;;5062830;28;20455;-63
2022/07/29 12:50:27;;;;;;;3.90;3.60;;;21.00;99.90;;;;;;5068066;28;20472;-63
2022/07/29 12:53:11;;;;;;;4.10;3.70;;;21.00;99.90;;;;;;5063785;28;20472;-63
2022/07/29 12:55:48;;;;;;;3.70;3.40;;;21.00;99.90;;;;;;5074610;28;20496;-63
2022/07/29 12:58:32;;;;;;;3.80;3.50;;;20.90;99.90;;;;;;5068859;28;20484;-64
2022/07/29 13:01:08;;;;;;;4.17;3.77;;;20.90;99.90;;;;;;5061752;28;20472;-63
2022/07/29 13:03:51;;;;;;;3.40;3.10;;;20.80;99.90;;;;;;5064938;28;20466;-63
2022/07/29 13:06:39;;;;;;;7.60;3.60;;;20.80;99.90;;;;;;5069979;28;20475;-63
2022/07/29 13:09:15;;;;;;;4.67;3.80;;;20.90;99.90;;;;;;5063273;28;20483;-63
2022/07/29 13:11:47;;;;;;;3.57;3.27;;;20.90;99.90;;;;;;5061841;28;20454;-63
2022/07/29 13:14:33;;;;;;;3.47;3.17;;;20.90;99.90;;;;;;5053554;28;20489;-63
2022/07/29 13:17:07;;;;;;;3.80;2.87;;;20.80;99.90;;;;;;5061786;28;20492;-63
2022/07/29 13:19:40;;;;;;;4.20;3.80;;;20.80;99.90;;;;;;5052306;28;20452;-63
2022/07/29 13:22:11;;;;;;;4.67;4.27;;;20.90;99.90;;;;;;5067449;28;20536;-63
2022/07/29 13:24:51;;;;;;;3.67;3.37;;;20.90;99.90;;;;;;5069603;28;20460;-63
2022/07/29 13:27:24;;;;;;;3.83;3.20;;;21.00;99.90;;;;;;5062506;28;20970;-63
2022/07/29 13:29:56;;;;;;;4.17;3.10;;;21.00;99.90;;;;;;5061419;28;20472;-63
2022/07/29 13:32:27;;;;;;;3.50;3.20;;;20.90;99.90;;;;;;5061212;28;20475;-63
2022/07/29 13:34:59;;;;;;;4.77;4.37;;;20.90;99.90;;;;;;5072270;28;20427;-63
2022/07/29 13:37:34;;;;;;;4.03;3.60;;;21.00;99.90;;;;;;5071515;28;20437;-63